Time;durP1;ratioP1;P1;durP2;ratioP2;P2;SDS_P1;SDS_P2;PMS_P1;PMS_P2;Temp;Humidity;BMP_temperature;BMP_pressure;BME280_temperature;BME280_humidity;BME280_pressure;Samples;Min_cycle;Max_cycle;Signal;HPM_P1;HPM_P2
2022/07/02 00:01:43;;;;;;;8.95;3.08;;;;;;;13.81;77.87;101990.75;5197655;28;19913;-76
2022/07/02 00:04:18;;;;;;;8.52;3.08;;;;;;;13.74;78.02;101994.25;5197547;28;20049;-76
2022/07/02 00:06:50;;;;;;;5.68;2.85;;;;;;;13.64;78.73;101990.84;5197881;28;20047;-75
2022/07/02 00:09:21;;;;;;;5.47;2.97;;;;;;;13.62;79.09;101996.94;5213070;28;20037;-74
2022/07/02 00:11:57;;;;;;;15.00;3.57;;;;;;;13.61;79.12;101995.22;5211029;28;20041;-75
2022/07/02 00:14:29;;;;;;;6.18;3.00;;;;;;;13.53;79.76;101995.28;5199280;28;20096;-75
2022/07/02 00:17:01;;;;;;;9.60;2.88;;;;;;;13.42;80.12;101989.22;5196925;28;20113;-75
2022/07/02 00:19:34;;;;;;;8.27;3.42;;;;;;;13.46;80.56;101996.19;5196490;28;20170;-76
2022/07/02 00:22:06;;;;;;;6.97;2.75;;;;;;;13.47;81.18;101992.69;5196220;28;20026;-74
2022/07/02 00:24:40;;;;;;;8.97;3.40;;;;;;;13.36;80.39;101987.50;5195612;28;20429;-76
2022/07/02 00:27:18;;;;;;;5.03;2.53;;;;;;;13.35;80.94;101987.50;5177571;28;20482;-74
2022/07/02 00:29:51;;;;;;;9.15;3.40;;;;;;;13.28;81.31;101986.63;5195284;28;20046;-75
2022/07/02 00:32:27;;;;;;;8.68;3.70;;;;;;;13.34;81.28;101991.88;5195918;28;20041;-75
2022/07/02 00:35:03;;;;;;;8.32;3.58;;;;;;;13.23;81.75;101994.50;5197202;28;20037;-74
2022/07/02 00:37:37;;;;;;;6.00;2.75;;;;;;;13.19;82.58;101989.31;5195207;28;20034;-74
2022/07/02 00:40:09;;;;;;;8.02;2.67;;;;;;;13.15;82.69;101996.28;5177620;28;20038;-74
2022/07/02 00:42:42;;;;;;;8.88;3.17;;;;;;;13.00;83.61;101998.97;5195347;28;20046;-75
2022/07/02 00:45:19;;;;;;;10.15;3.10;;;;;;;13.01;83.31;102000.69;5177073;28;20038;-73
2022/07/02 00:47:51;;;;;;;19.73;3.35;;;;;;;12.91;83.55;101995.53;5194209;28;20101;-75
2022/07/02 00:50:22;;;;;;;8.40;3.00;;;;;;;12.91;84.12;101992.00;5194581;28;20034;-74
2022/07/02 00:52:54;;;;;;;8.17;2.97;;;;;;;12.98;84.41;101991.13;5194990;28;20491;-74
2022/07/02 00:55:25;;;;;;;5.77;2.80;;;;;;;12.73;84.31;101985.94;5194989;28;20026;-75
2022/07/02 00:57:58;;;;;;;7.07;3.10;;;;;;;12.85;84.83;101984.19;5194570;28;20113;-73
2022/07/02 01:00:29;;;;;;;7.25;3.00;;;;;;;12.73;85.01;101985.09;5194337;28;20034;-74
2022/07/02 01:03:08;;;;;;;4.30;2.30;;;;;;;12.63;85.89;101983.38;5194722;28;20437;-75
2022/07/02 01:05:40;;;;;;;8.43;3.08;;;;;;;12.64;85.98;101980.75;5194923;28;20031;-74
2022/07/02 01:11:04;;;;;;;5.37;2.70;;;;;;;12.61;86.06;101985.13;5194622;28;20073;-76
2022/07/02 01:13:35;;;;;;;7.77;2.50;;;;;;;12.55;85.96;101978.16;5194503;28;20061;-75
2022/07/02 01:16:06;;;;;;;6.70;2.80;;;;;;;12.60;86.52;101976.38;5194273;28;20030;-75
2022/07/02 01:18:38;;;;;;;6.67;2.80;;;;;;;12.43;86.88;101978.16;5176578;28;20038;-75
2022/07/02 01:21:09;;;;;;;6.33;2.40;;;;;;;12.49;87.36;101975.53;5193994;28;20104;-75
2022/07/02 01:23:40;;;;;;;7.57;2.77;;;;;;;12.43;87.33;101978.16;5194174;28;20392;-74
2022/07/02 01:26:12;;;;;;;7.07;2.90;;;;;;;12.35;87.17;101975.59;5194315;28;20030;-76
2022/07/02 01:28:43;;;;;;;7.23;3.17;;;;;;;12.31;88.01;101979.06;5193775;28;20022;-74
2022/07/02 01:31:15;;;;;;;5.57;3.00;;;;;;;12.34;89.34;101979.91;5193903;28;20046;-77
2022/07/02 01:33:46;;;;;;;6.53;3.97;;;;;;;12.24;89.69;101983.44;5193924;28;20079;-76
2022/07/02 01:36:18;;;;;;;5.93;2.57;;;;;;;12.26;89.65;101976.44;5176305;28;20030;-75
2022/07/02 01:38:49;;;;;;;8.47;3.10;;;;;;;12.22;90.18;101975.59;5193864;28;20070;-76
2022/07/02 01:41:39;;;;;;;5.87;2.80;;;;;;;12.21;90.23;101983.41;5193572;28;20048;-75
2022/07/02 01:44:10;;;;;;;5.55;3.00;;;;;;;12.17;90.92;101973.81;5192984;28;20038;-75
2022/07/02 01:46:44;;;;;;;4.33;2.97;;;;;;;12.17;90.74;101986.91;5193922;28;20027;-76
2022/07/02 01:49:22;;;;;;;6.60;3.47;;;;;;;12.07;91.46;101986.03;5193707;28;20096;-76
2022/07/02 01:51:53;;;;;;;6.63;2.92;;;;;;;12.13;90.89;101985.16;5193546;28;20030;-76
2022/07/02 01:54:25;;;;;;;7.53;3.10;;;;;;;12.10;91.05;101985.16;5194298;28;20710;-76
2022/07/02 01:56:57;;;;;;;8.77;3.37;;;;;;;12.12;90.67;101979.06;5194412;28;20041;-75
2022/07/02 01:59:28;;;;;;;7.22;2.35;;;;;;;11.95;90.75;101981.69;5193832;28;20034;-75
2022/07/02 02:02:00;;;;;;;6.50;3.10;;;;;;;12.09;91.37;101981.69;5194293;28;20390;-77
2022/07/02 02:04:32;;;;;;;7.07;3.55;;;;;;;11.99;91.21;101980.81;5194686;28;20066;-74
2022/07/02 02:07:04;;;;;;;7.95;3.08;;;;;;;12.02;91.42;101980.78;5194873;28;20081;-77
2022/07/02 02:09:35;;;;;;;6.37;2.57;;;;;;;12.03;91.69;101976.47;5195609;28;20132;-77
2022/07/02 02:12:07;;;;;;;3.90;2.47;;;;;;;12.07;91.92;101980.81;5190162;28;20106;-75
2022/07/02 02:14:38;;;;;;;6.53;3.50;;;;;;;11.95;91.76;101976.44;5207242;28;20080;-76
2022/07/02 02:17:10;;;;;;;5.93;2.77;;;;;;;11.96;91.93;101977.31;5200896;28;20100;-77
2022/07/02 02:19:41;;;;;;;9.97;3.43;;;;;;;11.94;91.35;101974.69;5194686;28;20034;-76
2022/07/02 02:22:13;;;;;;;7.57;2.93;;;;;;;12.12;90.91;101975.56;5194242;28;20100;-76
2022/07/02 02:24:44;;;;;;;11.83;3.43;;;;;;;12.09;91.47;101978.19;5193711;28;20141;-74
2022/07/02 02:27:15;;;;;;;9.07;3.30;;;;;;;12.12;91.27;101973.81;5193282;28;20106;-74
2022/07/02 02:29:46;;;;;;;8.10;3.37;;;;;;;12.19;90.79;101970.34;5193373;28;20042;-75
2022/07/02 02:32:18;;;;;;;9.07;3.37;;;;;;;12.20;90.54;101981.66;5193181;28;20026;-75
2022/07/02 02:34:49;;;;;;;11.57;4.17;;;;;;;12.34;90.71;101986.91;5193060;28;20039;-75
2022/07/02 02:37:21;;;;;;;8.77;3.93;;;;;;;12.48;90.94;101971.22;5193267;28;20054;-75
2022/07/02 02:39:52;;;;;;;9.27;3.90;;;;;;;12.49;90.02;101983.38;5194679;28;20052;-74
2022/07/02 02:42:24;;;;;;;10.67;3.87;;;;;;;12.64;89.65;101975.53;5193432;28;20026;-76
2022/07/02 02:44:55;;;;;;;7.00;3.80;;;;;;;12.67;89.12;101980.75;5193755;28;20056;-76
2022/07/02 02:47:26;;;;;;;10.87;4.30;;;;;;;12.71;87.81;101969.38;5193029;28;20041;-75
2022/07/02 02:49:58;;;;;;;7.43;4.00;;;;;;;12.81;86.97;101979.84;5193182;28;20026;-76
2022/07/02 02:52:29;;;;;;;7.13;3.40;;;;;;;12.82;87.11;101982.44;5193342;28;20450;-75
2022/07/02 02:55:00;;;;;;;9.40;3.53;;;;;;;12.83;86.46;101980.69;5192974;28;20022;-76
2022/07/02 02:57:32;;;;;;;7.97;3.47;;;;;;;12.80;85.85;101983.31;5192923;28;20081;-77
2022/07/02 03:00:04;;;;;;;10.87;3.83;;;;;;;12.80;85.75;101981.59;5192958;28;20541;-75
2022/07/02 03:02:35;;;;;;;6.25;3.33;;;;;;;12.77;86.55;101972.00;5192672;28;20038;-76
2022/07/02 03:05:07;;;;;;;7.00;3.80;;;;;;;12.64;86.13;101980.75;5192589;28;20042;-75
2022/07/02 03:07:38;;;;;;;10.97;3.80;;;;;;;12.53;86.90;101983.38;5175102;28;20112;-76
2022/07/02 03:10:10;;;;;;;6.30;3.33;;;;;;;12.47;86.96;101986.00;5192856;28;20824;-75
2022/07/02 03:12:41;;;;;;;12.57;3.87;;;;;;;12.39;87.76;101987.75;5195293;28;20187;-75
2022/07/02 03:15:13;;;;;;;9.23;3.90;;;;;;;12.33;88.42;101993.88;5196683;28;20054;-75
2022/07/02 03:17:44;;;;;;;11.27;3.83;;;;;;;12.30;88.65;101999.13;5196566;28;20080;-75
2022/07/02 03:20:16;;;;;;;10.03;3.83;;;;;;;12.25;88.65;102002.59;5197030;28;20487;-76
2022/07/02 03:22:47;;;;;;;9.53;4.50;;;;;;;12.24;89.29;101999.09;5196373;28;20062;-76
2022/07/02 03:25:18;;;;;;;7.37;3.90;;;;;;;12.25;88.32;102003.44;5196257;28;20031;-75
2022/07/02 03:27:50;;;;;;;6.90;3.30;;;;;;;12.27;88.71;102001.72;5196348;28;20105;-75
2022/07/02 03:30:22;;;;;;;11.68;4.15;;;;;;;12.26;88.81;101999.97;5196202;28;20026;-75
2022/07/02 03:32:53;;;;;;;9.07;3.40;;;;;;;12.21;88.65;102001.72;5196654;28;20135;-75
2022/07/02 03:35:25;;;;;;;7.47;3.40;;;;;;;12.29;88.46;102009.56;5196731;28;20034;-74
2022/07/02 03:37:56;;;;;;;5.53;3.00;;;;;;;12.31;88.21;102015.66;5196609;28;20026;-75
2022/07/02 03:40:27;;;;;;;7.93;3.17;;;;;;;12.36;87.44;102006.97;5196376;28;20561;-75
2022/07/02 03:42:59;;;;;;;11.20;3.50;;;;;;;12.46;87.69;102018.28;5196380;28;20033;-75
2022/07/02 03:45:30;;;;;;;8.77;3.13;;;;;;;12.46;87.88;102020.00;5196576;28;20030;-76
2022/07/02 03:48:02;;;;;;;7.87;3.10;;;;;;;12.39;88.28;102013.91;5196366;28;20026;-76
2022/07/02 03:50:37;;;;;;;9.60;3.37;;;;;;;12.44;88.52;102020.00;5196596;28;20124;-76
2022/07/02 03:53:09;;;;;;;10.48;3.28;;;;;;;12.38;87.82;102020.91;5196610;28;20026;-77
2022/07/02 03:55:40;;;;;;;6.57;2.77;;;;;;;12.47;87.66;102022.63;5178744;28;20045;-76
2022/07/02 03:58:12;;;;;;;10.77;3.10;;;;;;;12.47;87.45;102024.38;5196133;28;20042;-74
2022/07/02 04:00:45;;;;;;;10.40;2.93;;;;;;;12.54;86.41;102018.25;5196647;28;20062;-74
2022/07/02 04:03:16;;;;;;;8.20;3.25;;;;;;;12.61;86.24;102008.69;5197072;28;20042;-76
2022/07/02 04:05:47;;;;;;;9.40;2.77;;;;;;;12.62;86.87;102015.63;5197013;28;20074;-76
2022/07/02 04:08:19;;;;;;;6.47;3.33;;;;;;;12.61;86.67;102016.53;5197335;28;20032;-73
2022/07/02 04:10:50;;;;;;;7.50;3.30;;;;;;;12.69;85.97;102023.47;5197586;28;20030;-75
2022/07/02 04:13:22;;;;;;;6.30;2.83;;;;;;;12.65;85.88;102023.47;5202481;28;20114;-74
2022/07/02 04:15:53;;;;;;;8.03;3.20;;;;;;;12.65;86.72;102020.84;5213121;28;20015;-76
2022/07/02 04:18:24;;;;;;;6.83;3.00;;;;;;;12.59;86.98;102029.59;5207994;28;20085;-76
2022/07/02 04:20:56;;;;;;;13.50;4.93;;;;;;;12.58;85.97;102027.84;5198012;28;20505;-75
2022/07/02 04:23:27;;;;;;;5.67;3.70;;;;;;;12.58;86.46;102025.22;5195368;28;20114;-76
2022/07/02 04:25:58;;;;;;;9.93;4.20;;;;;;;12.62;87.28;102026.09;5196759;28;20035;-76
2022/07/02 04:28:30;;;;;;;8.23;3.83;;;;;;;12.65;87.40;102021.72;5196595;28;20496;-74
2022/07/02 04:31:03;;;;;;;9.57;4.67;;;;;;;12.72;86.55;102028.69;5195679;28;20470;-76
2022/07/02 04:33:35;;;;;;;9.05;3.95;;;;;;;12.78;86.38;102017.34;5195847;28;20354;-74
2022/07/02 04:36:06;;;;;;;8.50;3.30;;;;;;;12.83;85.88;102019.94;5196499;28;20049;-76
2022/07/02 04:38:38;;;;;;;6.80;3.73;;;;;;;12.87;85.51;102029.53;5196170;28;20026;-75
2022/07/02 04:41:09;;;;;;;8.10;3.60;;;;;;;12.99;86.25;102018.16;5195896;28;20027;-74
2022/07/02 04:43:40;;;;;;;9.47;3.47;;;;;;;12.99;86.14;102016.41;5195882;28;20117;-77
2022/07/02 04:46:12;;;;;;;5.83;3.17;;;;;;;13.04;85.33;102019.00;5195241;28;20048;-74
2022/07/02 04:48:43;;;;;;;7.47;3.17;;;;;;;13.12;83.86;102027.72;5195561;28;20031;-75
2022/07/02 04:51:14;;;;;;;7.07;3.33;;;;;;;13.19;84.91;102012.88;5195228;28;20026;-75
2022/07/02 04:53:46;;;;;;;8.60;3.37;;;;;;;13.14;83.90;102018.97;5195311;28;20049;-75
2022/07/02 04:56:17;;;;;;;9.53;3.77;;;;;;;13.18;84.70;102014.59;5194754;28;20100;-76
2022/07/02 04:58:48;;;;;;;8.87;4.03;;;;;;;13.16;84.32;102020.75;5194756;28;20038;-74
2022/07/02 05:01:20;;;;;;;9.53;3.87;;;;;;;13.20;83.38;102025.06;5195319;28;20030;-74
2022/07/02 05:03:52;;;;;;;8.97;3.87;;;;;;;13.28;83.43;102029.41;5194706;28;20054;-74
2022/07/02 05:06:23;;;;;;;9.73;3.87;;;;;;;13.42;82.04;102031.13;5194743;28;20125;-77
2022/07/02 05:08:54;;;;;;;5.50;3.47;;;;;;;13.45;83.01;102018.03;5194766;28;20027;-74
2022/07/02 05:11:26;;;;;;;5.97;3.77;;;;;;;13.48;82.13;102024.09;5194731;28;20120;-73
2022/07/02 05:13:57;;;;;;;8.73;4.50;;;;;;;13.48;nan;102026.72;5194907;28;20154;-74
2022/07/02 05:16:29;;;;;;;8.53;3.30;;;;;;;13.49;82.07;102023.25;5194759;28;20031;-73
2022/07/02 05:19:00;;;;;;;7.03;3.53;;;;;;;13.53;81.22;102029.31;5194595;28;20026;-75
2022/07/02 05:21:31;;;;;;;5.60;3.30;;;;;;;13.60;80.76;102020.53;5194507;28;20890;-75
2022/07/02 05:24:04;;;;;;;9.47;3.77;;;;;;;13.66;80.40;102019.66;5194418;28;20034;-73
2022/07/02 05:26:35;;;;;;;10.57;3.65;;;;;;;13.64;80.29;102022.28;5194647;28;20081;-74
2022/07/02 05:29:06;;;;;;;8.10;3.50;;;;;;;13.70;80.47;102030.97;5176861;28;20034;-74
2022/07/02 05:31:38;;;;;;;9.27;3.87;;;;;;;13.77;80.80;102028.31;5194225;28;20474;-75
2022/07/02 05:34:09;;;;;;;8.17;3.23;;;;;;;13.87;78.99;102031.75;5194194;28;20035;-74
2022/07/02 05:36:40;;;;;;;5.87;3.40;;;;;;;13.92;80.18;102031.72;5194502;28;20061;-74
2022/07/02 05:39:12;;;;;;;8.43;3.70;;;;;;;14.00;79.23;102036.00;5176811;28;20117;-74
2022/07/02 05:41:43;;;;;;;5.93;3.40;;;;;;;14.10;78.05;102035.94;5194672;28;20057;-75
2022/07/02 05:44:14;;;;;;;6.43;3.60;;;;;;;14.18;78.36;102042.91;5194088;28;20254;-74
2022/07/02 05:46:46;;;;;;;7.50;2.70;;;;;;;14.32;77.10;102047.16;5193953;28;20465;-77
2022/07/02 05:49:17;;;;;;;6.13;2.83;;;;;;;14.34;78.17;102037.50;5193987;28;20112;-77
2022/07/02 05:51:48;;;;;;;8.70;2.70;;;;;;;14.44;77.01;102040.94;5194149;28;20026;-76
2022/07/02 05:54:20;;;;;;;6.67;2.43;;;;;;;14.54;75.51;102053.09;5194140;28;20113;-75
2022/07/02 05:56:51;;;;;;;4.03;2.40;;;;;;;14.62;74.23;102039.91;5194133;28;20027;-76
2022/07/02 05:59:23;;;;;;;7.00;2.13;;;;;;;14.68;73.71;102048.63;5194518;28;20478;-77
2022/07/02 06:01:54;;;;;;;7.20;2.47;;;;;;;14.85;71.79;102047.59;5194283;28;20105;-76
2022/07/02 06:04:25;;;;;;;7.37;2.60;;;;;;;14.95;70.29;102049.22;5194222;28;20030;-76
2022/07/02 06:09:51;;;;;;;;;;;;;;;15.18;69.54;102045.44;5196374;28;20462;-77
2022/07/02 06:12:24;;;;;;;5.05;2.03;;;;;;;15.32;67.80;102040.91;5177579;28;19996;-76
2022/07/02 06:14:55;;;;;;;5.00;1.80;;;;;;;15.46;66.45;102048.63;5195704;28;20030;-75
2022/07/02 06:17:27;;;;;;;6.90;2.67;;;;;;;15.54;65.83;102049.38;5209788;28;20022;-76
2022/07/02 06:19:58;;;;;;;4.50;2.00;;;;;;;15.71;64.86;102040.38;5211482;28;20033;-74
2022/07/02 06:22:29;;;;;;;4.03;1.90;;;;;;;15.85;63.65;102049.84;5204482;28;20030;-76
2022/07/02 06:25:01;;;;;;;6.67;2.50;;;;;;;16.17;63.25;102045.84;5194544;28;20073;-77
2022/07/02 06:27:34;;;;;;;7.10;2.40;;;;;;;16.52;60.49;102041.78;5194376;28;20094;-78
2022/07/02 06:30:06;;;;;;;4.82;2.15;;;;;;;16.80;58.75;102049.16;5192935;28;20113;-76
2022/07/02 06:32:38;;;;;;;7.00;2.03;;;;;;;16.84;59.06;102044.69;5193210;28;20113;-75
2022/07/02 06:35:09;;;;;;;4.93;1.73;;;;;;;16.93;58.67;102053.31;5193400;28;20056;-77
2022/07/02 06:37:40;;;;;;;7.27;2.10;;;;;;;16.87;58.58;102056.09;5193001;28;20038;-77
2022/07/02 06:40:12;;;;;;;4.53;1.40;;;;;;;16.71;61.25;102051.97;5193533;28;20481;-76
2022/07/02 06:42:44;;;;;;;4.13;1.60;;;;;;;16.68;60.79;102049.38;5193616;28;20084;-78
2022/07/02 06:45:15;;;;;;;4.07;1.40;;;;;;;16.73;59.67;102056.31;5193558;28;20488;-77
2022/07/02 06:47:46;;;;;;;4.63;1.50;;;;;;;16.85;59.13;102057.88;5192530;28;20027;-76
2022/07/02 06:50:18;;;;;;;3.83;1.60;;;;;;;17.00;59.38;102048.84;5193242;28;20033;-77
2022/07/02 06:52:50;;;;;;;3.53;1.30;;;;;;;16.98;56.97;102044.47;5194222;28;20058;-74
2022/07/02 06:55:21;;;;;;;4.20;1.67;;;;;;;16.91;56.80;102044.59;5193702;28;20084;-73
2022/07/02 06:57:53;;;;;;;3.07;1.40;;;;;;;16.94;56.56;102044.53;5193796;28;20029;-74
2022/07/02 07:00:24;;;;;;;3.67;1.50;;;;;;;16.85;53.69;102049.97;5195624;28;20027;-74
2022/07/02 07:02:55;;;;;;;1.97;1.20;;;;;;;16.87;52.04;102053.47;5195027;28;20030;-77
2022/07/02 07:05:27;;;;;;;4.87;1.40;;;;;;;16.94;56.20;102051.59;5193668;28;20045;-76
2022/07/02 07:07:58;;;;;;;3.60;1.33;;;;;;;17.06;55.32;102050.47;5193036;28;20509;-77
2022/07/02 07:10:31;;;;;;;4.23;1.40;;;;;;;17.14;52.68;102052.03;5193755;28;20034;-77
2022/07/02 07:13:02;;;;;;;3.03;1.25;;;;;;;17.14;55.14;102045.91;5192975;28;20042;-75
2022/07/02 07:15:34;;;;;;;3.07;1.30;;;;;;;17.36;54.80;102048.97;5194105;28;20036;-75
2022/07/02 07:18:05;;;;;;;3.20;1.03;;;;;;;17.38;52.13;102043.69;5176654;28;20030;-75
2022/07/02 07:20:36;;;;;;;4.63;1.40;;;;;;;17.56;53.59;102047.69;5193723;28;20486;-74
2022/07/02 07:23:08;;;;;;;3.40;1.20;;;;;;;17.59;52.12;102047.63;5194529;28;20037;-77
2022/07/02 07:25:39;;;;;;;2.80;1.33;;;;;;;17.74;51.99;102054.31;5176355;28;20034;-74
2022/07/02 07:28:10;;;;;;;4.60;1.47;;;;;;;17.71;53.83;102055.25;5192721;28;20035;-72
2022/07/02 07:30:43;;;;;;;5.93;1.47;;;;;;;17.82;52.45;102050.63;5176356;28;20120;-74
2022/07/02 07:33:14;;;;;;;3.63;1.42;;;;;;;17.89;53.14;102048.72;5185083;28;20033;-76
2022/07/02 07:35:45;;;;;;;5.03;1.67;;;;;;;18.07;53.33;102044.78;5180336;28;20504;-75
2022/07/02 07:38:17;;;;;;;3.63;1.77;;;;;;;18.10;52.53;102047.34;5184456;28;20105;-76
2022/07/02 07:40:48;;;;;;;5.90;1.93;;;;;;;18.20;53.20;102056.78;5182627;28;20101;-76
2022/07/02 07:43:20;;;;;;;3.57;1.77;;;;;;;18.22;54.26;102057.63;5163953;28;20057;-77
2022/07/02 07:45:51;;;;;;;4.03;1.40;;;;;;;18.44;52.44;102065.00;5173753;28;20031;-75
2022/07/02 07:48:23;;;;;;;4.33;1.70;;;;;;;18.51;53.95;102066.56;5175641;28;20027;-76
2022/07/02 07:50:54;;;;;;;6.87;1.80;;;;;;;18.62;52.05;102062.78;5174413;28;20030;-77
2022/07/02 07:53:26;;;;;;;2.23;1.10;;;;;;;18.67;52.46;102060.88;5173554;28;20442;-76
2022/07/02 07:55:57;;;;;;;5.00;1.43;;;;;;;18.68;50.74;102057.34;5173768;28;20241;-73
2022/07/02 07:58:29;;;;;;;4.20;1.60;;;;;;;18.85;51.39;102049.00;5175822;28;20471;-76
2022/07/02 08:01:01;;;;;;;6.30;1.60;;;;;;;18.70;52.72;102055.53;5177868;28;20602;-78
2022/07/02 08:03:32;;;;;;;4.33;1.70;;;;;;;18.67;51.44;102053.81;5178664;28;20037;-76
2022/07/02 08:06:04;;;;;;;6.97;1.63;;;;;;;18.84;51.27;102057.84;5177218;28;20086;-76
2022/07/02 08:08:35;;;;;;;5.20;1.43;;;;;;;18.80;49.34;102051.72;5177466;28;20153;-74
2022/07/02 08:11:07;;;;;;;4.18;1.80;;;;;;;18.94;51.00;102051.38;5178409;28;20043;-75
2022/07/02 08:13:38;;;;;;;2.47;1.20;;;;;;;18.97;49.54;102051.31;5177557;28;20477;-75
2022/07/02 08:16:10;;;;;;;3.03;1.20;;;;;;;19.03;48.97;102042.31;5178661;28;20501;-77
2022/07/02 08:18:41;;;;;;;7.90;1.67;;;;;;;19.26;50.25;102039.88;5178329;28;20031;-78
2022/07/02 08:21:12;;;;;;;6.83;1.50;;;;;;;19.21;49.25;102036.53;5190858;28;20048;-74
2022/07/02 08:23:44;;;;;;;6.77;1.70;;;;;;;19.33;51.21;102037.06;5194179;28;20025;-76
2022/07/02 08:26:16;;;;;;;5.87;1.57;;;;;;;19.34;49.05;102036.19;5184605;28;20041;-75
2022/07/02 08:28:47;;;;;;;5.68;1.63;;;;;;;19.30;49.35;102030.97;5165463;28;20027;-75
2022/07/02 08:31:18;;;;;;;3.53;1.60;;;;;;;19.28;49.34;102026.63;5184249;28;20409;-76
2022/07/02 08:33:50;;;;;;;5.40;2.08;;;;;;;19.45;50.54;102032.28;5177687;28;20034;-75
2022/07/02 08:36:22;;;;;;;3.63;1.20;;;;;;;19.45;49.02;102032.28;5176903;28;20031;-75
2022/07/02 08:38:53;;;;;;;4.27;1.60;;;;;;;19.49;48.61;102031.25;5178046;28;20105;-75
2022/07/02 08:41:25;;;;;;;7.00;1.87;;;;;;;19.62;51.59;102026.47;5177311;28;20161;-75
2022/07/02 08:43:57;;;;;;;7.53;1.70;;;;;;;19.84;50.60;102033.78;5176764;28;20030;-76
2022/07/02 08:46:29;;;;;;;6.75;2.30;;;;;;;19.91;49.55;102031.78;5158507;28;20043;-75
2022/07/02 08:49:01;;;;;;;4.75;1.30;;;;;;;19.97;48.86;102027.16;5175354;28;20496;-75
2022/07/02 08:51:33;;;;;;;4.82;1.60;;;;;;;20.01;48.91;102030.56;5175515;28;20041;-76
2022/07/02 08:54:06;;;;;;;4.15;1.45;;;;;;;20.09;48.93;102019.75;5174734;28;20139;-76
2022/07/02 08:56:38;;;;;;;5.63;1.48;;;;;;;20.18;47.90;102022.09;5174948;28;20066;-76
2022/07/02 08:59:10;;;;;;;5.63;1.85;;;;;;;20.25;49.58;102017.44;5174661;28;20386;-77
2022/07/02 09:01:41;;;;;;;7.43;1.80;;;;;;;20.25;50.11;102013.00;5174720;28;20058;-77
2022/07/02 09:04:18;;;;;;;7.93;2.23;;;;;;;20.37;50.32;102020.53;5174454;28;20023;-74
2022/07/02 09:06:53;;;;;;;5.72;1.92;;;;;;;20.35;49.14;102018.84;5174334;28;20047;-77
2022/07/02 09:09:29;;;;;;;3.97;1.70;;;;;;;20.44;47.41;102020.34;5173677;28;20046;-78
2022/07/02 09:12:03;;;;;;;6.57;1.98;;;;;;;20.63;48.03;102005.53;5174782;28;20089;-76
2022/07/02 09:14:34;;;;;;;3.70;1.58;;;;;;;20.53;47.16;102004.13;5174440;28;20026;-76
2022/07/02 09:17:07;;;;;;;5.40;1.80;;;;;;;20.61;48.83;101996.78;5174462;28;20475;-77
2022/07/02 09:19:39;;;;;;;5.57;1.95;;;;;;;20.84;49.32;101995.97;5174761;28;20469;-75
2022/07/02 09:22:12;;;;;;;4.25;1.92;;;;;;;21.03;49.09;102004.09;5186059;28;20030;-77
2022/07/02 09:24:43;;;;;;;5.40;1.63;;;;;;;21.20;47.72;101994.66;5179034;28;20027;-78
2022/07/02 09:27:16;;;;;;;7.70;1.33;;;;;;;21.16;46.08;101995.69;5182509;28;20405;-73
2022/07/02 09:29:52;;;;;;;4.75;1.88;;;;;;;21.33;47.58;101995.88;5183197;28;20035;-76
2022/07/02 09:32:24;;;;;;;3.15;1.73;;;;;;;21.35;46.08;101988.75;5184698;28;20615;-74
2022/07/02 09:34:55;;;;;;;5.90;1.50;;;;;;;21.41;45.53;101983.22;5176728;28;20031;-75
2022/07/02 09:37:28;;;;;;;4.30;1.60;;;;;;;21.59;47.35;101983.41;5173833;28;20035;-75
2022/07/02 09:40:02;;;;;;;6.22;1.52;;;;;;;21.43;44.82;101975.16;5167570;28;20030;-75
2022/07/02 09:42:35;;;;;;;3.45;1.70;;;;;;;21.54;46.14;101977.44;5193502;28;20427;-74
2022/07/02 09:45:09;;;;;;;;;;;;;;;21.77;46.48;101969.41;5191440;28;20117;-77
2022/07/02 09:47:48;;;;;;;3.72;1.23;;;;;;;21.67;45.40;101968.09;5182986;28;19924;-75
2022/07/02 09:50:21;;;;;;;3.72;1.55;;;;;;;21.73;47.75;101967.81;5182534;28;20502;-77
2022/07/02 09:53:00;;;;;;;3.47;1.40;;;;;;;21.83;45.07;101977.13;5164419;28;20126;-76
2022/07/02 09:55:33;;;;;;;5.20;1.55;;;;;;;21.85;44.48;101967.31;5173299;28;20117;-77
2022/07/02 09:58:05;;;;;;;6.80;1.60;;;;;;;22.18;43.16;101966.81;5173969;28;20026;-73
2022/07/02 10:00:44;;;;;;;3.95;1.30;;;;;;;22.49;44.54;101967.28;5156056;28;20061;-76
2022/07/02 10:03:16;;;;;;;7.38;1.73;;;;;;;22.64;44.03;101965.78;5173864;28;20038;-76
2022/07/02 10:05:54;;;;;;;4.23;1.27;;;;;;;22.82;43.24;101962.25;5173179;28;20023;-77
2022/07/02 10:08:27;;;;;;;3.88;1.40;;;;;;;22.80;42.51;101966.81;5174983;28;20051;-76
2022/07/02 10:10:58;;;;;;;;;;;;;;;23.36;42.19;101964.22;5174504;28;20110;-77
2022/07/02 10:13:31;;;;;;;3.43;1.60;;;;;;;23.28;39.54;101961.94;5173010;28;20102;-73
2022/07/02 10:16:04;;;;;;;4.28;1.73;;;;;;;23.87;38.07;101954.66;5181758;28;20030;-76
2022/07/02 10:18:36;;;;;;;3.70;1.80;;;;;;;23.33;40.21;101959.94;5195426;28;20234;-77
2022/07/02 10:21:11;;;;;;;4.80;1.30;;;;;;;23.51;40.56;101960.84;5178556;28;20030;-77
2022/07/02 10:23:45;;;;;;;3.17;1.58;;;;;;;23.11;39.60;101944.13;5196014;28;20026;-75
2022/07/02 10:26:17;;;;;;;6.88;1.88;;;;;;;23.66;39.24;101944.09;5196277;28;20076;-76
2022/07/02 10:28:49;;;;;;;2.28;1.33;;;;;;;24.82;37.88;101942.66;5205496;28;20026;-75
2022/07/02 10:31:20;;;;;;;;;;;;;;;25.28;39.25;101945.47;5208504;28;20114;-75
2022/07/02 10:34:20;;;;;;;6.00;1.70;;;;;;;24.58;38.83;101948.34;5196035;28;20020;-75
2022/07/02 10:36:51;;;;;;;2.67;1.13;;;;;;;25.57;34.28;101942.94;5193488;28;20031;-76
2022/07/02 10:39:23;;;;;;;2.05;1.13;;;;;;;24.97;33.90;101938.28;5191242;28;20615;-76
2022/07/02 10:42:01;;;;;;;4.83;1.50;;;;;;;24.21;37.36;101935.16;5194899;28;20577;-75
2022/07/02 10:44:39;;;;;;;2.00;1.00;;;;;;;25.11;36.66;101936.53;5192649;28;20470;-76
2022/07/02 10:47:25;;;;;;;2.20;1.10;;;;;;;27.58;33.44;101945.69;5189721;28;20026;-77
2022/07/02 10:49:58;;;;;;;3.22;1.25;;;;;;;26.86;31.91;101943.19;5193543;28;20405;-77
2022/07/02 10:53:05;;;;;;;3.95;1.48;;;;;;;26.67;32.11;101937.28;5194119;28;20633;-76
2022/07/02 10:55:39;;;;;;;3.45;1.02;;;;;;;27.11;31.23;101931.78;5126516;29;20142;-77
2022/07/02 10:58:24;;;;;;;2.75;1.33;;;;;;;28.02;30.72;101924.94;5107197;29;20160;-74
2022/07/02 11:01:07;;;;;;;4.03;1.38;;;;;;;28.54;29.59;101928.44;5113148;29;20043;-75
2022/07/02 11:03:49;;;;;;;3.17;1.40;;;;;;;27.89;28.04;101924.03;5110678;29;20452;-75
2022/07/02 11:06:28;;;;;;;2.50;1.23;;;;;;;26.99;31.62;101934.38;5113265;29;20066;-75
2022/07/02 11:09:06;;;;;;;1.40;1.02;;;;;;;26.55;30.82;101931.72;5124185;29;20074;-76
2022/07/02 11:11:39;;;;;;;1.55;0.75;;;;;;;27.34;30.86;101918.75;5126262;29;20079;-75
2022/07/02 11:14:16;;;;;;;3.97;1.10;;;;;;;26.96;31.26;101927.41;5130299;29;20048;-74
2022/07/02 11:16:50;;;;;;;4.25;1.33;;;;;;;26.63;31.05;101930.34;5118058;29;20043;-75
2022/07/02 11:19:29;;;;;;;3.00;1.10;;;;;;;28.24;28.12;101918.94;5110713;29;20040;-74
2022/07/02 11:22:05;;;;;;;3.83;1.13;;;;;;;26.86;28.90;101920.94;5110352;29;20475;-72
2022/07/02 11:24:38;;;;;;;1.83;1.20;;;;;;;25.81;31.02;101924.63;5110118;29;20043;-74
2022/07/02 11:27:09;;;;;;;4.28;1.13;;;;;;;26.48;32.22;101916.16;5093906;29;20051;-75
2022/07/02 11:29:52;;;;;;;3.35;1.67;;;;;;;29.61;31.12;101913.56;5127403;29;20063;-73
2022/07/02 11:32:23;;;;;;;4.20;1.20;;;;;;;31.80;24.86;101910.34;5160429;28;20054;-75
2022/07/02 11:34:58;;;;;;;;;;;;;;;33.21;25.28;101906.97;5178173;28;20022;-76
2022/07/02 11:37:30;;;;;;;4.15;1.10;;;;;;;30.67;26.02;101891.84;5176751;28;19918;-76
2022/07/02 11:40:01;;;;;;;;;;;;;;;30.23;26.38;101895.38;5176096;28;20057;-73
2022/07/02 11:42:36;;;;;;;3.83;1.20;;;;;;;29.77;25.94;101897.97;5176848;28;20102;-70
2022/07/02 11:45:08;;;;;;;5.95;1.58;;;;;;;28.52;27.58;101888.31;5177609;28;20027;-73
2022/07/02 11:47:46;;;;;;;;;;;;;;;30.18;25.38;101896.59;5178090;28;20097;-73
2022/07/02 11:50:29;;;;;;;3.97;1.10;;;;;;;28.87;27.06;101886.78;5177110;28;19918;-74
2022/07/02 11:53:01;;;;;;;3.30;1.40;;;;;;;30.42;24.88;101890.28;5177691;28;20030;-74
2022/07/02 11:55:33;;;;;;;;;;;;;;;31.24;24.11;101891.75;5177476;28;20388;-74
2022/07/02 11:58:05;;;;;;;2.37;1.40;;;;;;;31.06;25.55;101880.66;5176592;28;19980;-75